Terminal Aerodrome Forecast
Issued by NWS Austin/San Antonio, TX

Current Version | Previous Version | Text Only | Print | Product List | Glossary On
Versions: 1 2 3 4 5 6 7 8 9 10 11 12 13 14 15 16 17 18 19 20 21 22 23 24 25 26 27 28 29 30 31 32 33 34
000
FTUS44 KEWX 230500
TAFAUS
TAF
KAUS 230534Z 2306/2412 36012G22KT P6SM FEW015 SCT080
     FM230700 24005KT P6SM FEW040 SCT080
     FM231600 24015KT P6SM SCT250
     FM240400 34005KT P6SM SCT250=

USA.gov is the U.S. government's official web portal to all federal, state and local government web resources and services.